Relevés horaires Beauvechain (Belgique)


Relevés horaires à Beauvechain - Lundi 13 Nov. 2017
Heure UTC1 Température [°C] Vent [km/h] Hum. [%] Pres.4 [hPa] Visi. [Km] Nébu. [octa] Préc.5 [mm] Cond.
2m. Res. Ros. Dir.2 Vit. Moy. Raf.3
23:00 3.0 3.0 2.0 NNO 1.9 -- 3.7 93 1025.2(0.6/3h) 18 -- -- --
22:00 3.4 3.4 2.3 NNO 1.9 -- 5.6 92 1025(0.8/3h) 19 -- -- --
21:00 4.1 4.1 2.6 OSO 3.7 -- 5.6 90 1025(1.0/3h) 20 -- -- --
20:00 4.5 4.5 2.5 SO 3.7 -- 3.7 87 1024.5(1.2/3h) 20 6/8 -- --
19:00 5.1 5.1 2.3 NNO 1.9 -- 3.7 82 1024.2(1.6/3h) 20 4/8 -- --
18:00 5.8 5.8 2.2 NNO 1.9 -- 16.7 78 1023.8(1.8/3h) 20 6/8 trace/12h
Etat du ciel inchangé
17:00 6.5 6.5 2.8 NNO 3.7 -- 13.0 77 1023.1(1.6/3h) 20 4/8 -- --
16:00 6.5 6.5 2.3 NNO 1.9 -- 13.0 74 1022.5(1.3/3h) 20 5/8 -- --
15:00 6.6 6.6 3.9 NNO 1.9 -- 16.7 83 1021.8(0.7/3h) 20 4/8 -- Il y a eu une averse de pluie à la station au cours de l'heure précédente, mais il n'y en a pas au moment de l'observation
14:00 9.0 8.4 3.3 N 5.6 -- 13.0 67 1021.2(0.7/3h) 20 4/8 -- --
13:00 8.4 7.3 2.8 NNO 7.4 -- 13.0 68 1021(0.7/3h) 20 4/8 -- --
12:00 8.1 6.5 3.0 NNO 9.3 -- 14.8 70 1021(1.1/3h) 20 5/8 -- --
11:00 8.2 7 4.2 NNO 7.4 -- 13.0 76 1020.6(1.5/3h) 20 4/8 -- --
10:00 7.3 6 4.1 NO 7.4 -- 14.8 80 1020.2(1.9/3h) 20 4/8 -- --
09:00 5.8 4.8 4.0 NO 5.6 -- 11.1 88 1019.8(2.2/3h) 20 4/8 -- --
08:00 5.5 3.9 3.1 NNO 7.4 -- 11.1 84 1019.2(2.0/3h) 20 4/8 -- --
07:00 3.2 3.2 2.0 ONO 3.7 -- 7.4 92 1018.6(2.3/3h) 20 4/8 -- --
06:00 3.8 3.8 2.6 O 3.7 -- 13.0 92 1017.7(2.4/3h) 20 7/8 0.2/12h
--
05:00 5.3 4.2 3.3 NO 5.6 -- 9.3 87 1017(2.7/3h) 20 7/8 -- --
04:00 4.5 4.5 3.4 ONO 3.7 -- 11.1 93 1016.1(2.1/3h) 20 -- -- NA
03:00 4.3 3.1 3.1 ONO 5.6 -- 13.0 92 1015.2(1.7/3h) 20 -- -- NA
02:00 4.8 3.1 3.0 NO 7.4 -- 13.0 88 1014.2(1.8/3h) 20 -- -- NA
01:00 4.5 4.5 2.9 O 3.7 -- 7.4 89 1014(2.2/3h) 20 -- -- NA
00:00 4.5 3.3 3.2 ONO 5.6 -- 11.1 91 1013.3(2.9/3h) 20 -- trace/6h
NA

1 Coordinated Universal Time. Actuellement il est 09:00 locale et 08:00 UTC.

2 Le vent souffle depuis la direction indiquée vers la direction oposée.

3 Les rafales max. sont disponible 40 min après l'heure du relevé.

4 Pour les stations d'altitude (plus de 600m) le géopotentiel du niveau le plus proche de la pression obligatoire est indiqué.

5 Les stations disposant d'un diffuseur peuvent indiquer "trace". Cela signifie que des précipitations ont touchés le sol mais que la quantité est inférieure à 0.1 mm.

Récapitulatif de la journée
Température [°C] Vent [km/h] Ensoleillement4 [h] Precipitations totale5 [mm] Pression [Hpa]
Min1 Max.2 Moy.3 Max. Min Max.
3.2 10.0 0 16.7 0 h 0 min 0 1013.3 1025.2

1 Température minimale relevée entre 18:00 UTC la veille et 18:00 UTC le jour donné.

2 Température maximale relevée entre 06:00 UTC le jour donné et 06:00 UTC le lendemain.

3 Vent moyen de la journée basé sur les relevés horaires.

4 Ensoleillement en heures relevé entre 06:00 UTC la veille et 06:00 UTC le jour donné.

5 Précipitations totales tombées entre 06:00 UTC la jour donné et 06:00 UTC le lendemain.

Graphiques horaires